createdAt,value
2023-04-19T00:01:48.869Z,11.30
2023-04-19T00:04:21.975Z,10.90
2023-04-19T00:06:54.963Z,9.70
2023-04-19T00:09:26.817Z,15.40
2023-04-19T00:11:58.611Z,7.40
2023-04-19T00:14:30.595Z,8.80
2023-04-19T00:17:02.515Z,9.70
2023-04-19T00:19:34.505Z,10.40
2023-04-19T00:22:06.284Z,9.50
2023-04-19T00:24:38.513Z,9.50
2023-04-19T00:27:10.671Z,21.10
2023-04-19T00:29:42.566Z,10.20
2023-04-19T00:32:14.730Z,11.10
2023-04-19T00:34:47.251Z,9.90
2023-04-19T00:37:19.163Z,9.60
2023-04-19T00:39:51.522Z,10.40
2023-04-19T00:42:23.436Z,9.80
2023-04-19T00:44:55.495Z,9.80
2023-04-19T00:47:27.441Z,4.30
2023-04-19T00:50:00.119Z,7.50
2023-04-19T00:52:33.767Z,7.60
2023-04-19T00:55:08.087Z,10.60
2023-04-19T00:57:40.828Z,8.00
2023-04-19T01:00:15.242Z,7.50
2023-04-19T01:02:47.736Z,10.50
2023-04-19T01:05:20.216Z,7.20
2023-04-19T01:07:52.476Z,15.20
2023-04-19T01:10:24.495Z,11.20
2023-04-19T01:12:56.575Z,11.40
2023-04-19T01:15:28.846Z,7.70
2023-04-19T01:18:02.254Z,11.70
2023-04-19T01:20:34.368Z,7.40
2023-04-19T01:23:06.862Z,10.00
2023-04-19T01:25:39.493Z,12.40
2023-04-19T01:28:11.323Z,10.50
2023-04-19T01:30:44.315Z,11.20
2023-04-19T01:33:16.912Z,9.30
2023-04-19T01:35:49.496Z,7.70
2023-04-19T01:40:51.833Z,11.50
2023-04-19T01:43:23.692Z,4.00
2023-04-19T01:45:56.058Z,10.70
2023-04-19T01:48:27.873Z,8.70
2023-04-19T01:50:59.680Z,9.50
2023-04-19T01:53:31.843Z,9.30
2023-04-19T01:56:03.994Z,9.40
2023-04-19T01:58:35.820Z,7.10
2023-04-19T02:01:09.767Z,7.40
2023-04-19T02:03:41.791Z,7.90
2023-04-19T02:06:15.029Z,8.30
2023-04-19T02:08:46.935Z,12.00
2023-04-19T02:11:19.698Z,9.30
2023-04-19T02:13:52.925Z,6.90
2023-04-19T02:16:26.052Z,8.60
2023-04-19T02:18:58.776Z,7.20
2023-04-19T02:21:31.865Z,5.40
2023-04-19T02:24:04.253Z,12.80
2023-04-19T02:29:07.154Z,8.90
2023-04-19T02:31:39.097Z,7.80
2023-04-19T02:34:14.701Z,6.10
2023-04-19T02:36:46.821Z,10.10
2023-04-19T02:39:18.701Z,6.30
2023-04-19T02:41:51.031Z,8.50
2023-04-19T02:44:23.231Z,7.10
2023-04-19T02:46:55.855Z,7.80
2023-04-19T02:51:58.237Z,6.50
2023-04-19T02:54:30.118Z,6.30
2023-04-19T02:57:02.061Z,8.40
2023-04-19T02:59:34.073Z,9.40
2023-04-19T03:02:07.091Z,12.90
2023-04-19T03:04:39.088Z,10.30
2023-04-19T03:07:11.456Z,8.20
2023-04-19T03:09:44.467Z,10.60
2023-04-19T03:12:16.402Z,7.90
2023-04-19T03:14:49.392Z,6.30
2023-04-19T03:17:21.382Z,7.70
2023-04-19T03:19:54.116Z,10.10
2023-04-19T03:22:26.001Z,7.30
2023-04-19T03:24:58.172Z,8.60
2023-04-19T03:27:29.943Z,11.10
2023-04-19T03:30:05.048Z,8.00
2023-04-19T03:32:36.963Z,11.40
2023-04-19T03:35:10.941Z,12.00
2023-04-19T03:37:43.490Z,8.30
2023-04-19T03:40:16.005Z,12.30
2023-04-19T03:42:48.057Z,15.30
2023-04-19T03:45:30.911Z,8.60
2023-04-19T03:48:03.345Z,10.50
2023-04-19T03:50:35.478Z,9.10
2023-04-19T03:53:07.678Z,8.90
2023-04-19T03:55:39.659Z,7.10
2023-04-19T03:58:11.573Z,10.30
2023-04-19T04:00:52.290Z,10.30
2023-04-19T04:03:27.310Z,15.80
2023-04-19T04:06:02.627Z,9.60
2023-04-19T04:08:41.236Z,14.20
2023-04-19T04:11:20.840Z,12.80
2023-04-19T04:13:58.134Z,9.70
2023-04-19T04:16:34.944Z,9.80
2023-04-19T04:21:38.730Z,10.20
2023-04-19T04:26:49.919Z,11.80
2023-04-19T04:29:25.912Z,9.50
2023-04-19T04:31:59.700Z,9.20
2023-04-19T04:34:35.839Z,9.60
2023-04-19T04:37:12.605Z,12.90
2023-04-19T04:39:45.477Z,10.00
2023-04-19T04:42:17.576Z,8.30
2023-04-19T04:44:51.880Z,13.70
2023-04-19T04:47:24.226Z,10.80
2023-04-19T04:49:59.178Z,11.10
2023-04-19T04:52:31.322Z,16.30
2023-04-19T04:55:16.459Z,9.20
2023-04-19T04:57:49.122Z,12.50
2023-04-19T05:00:27.286Z,10.00
2023-04-19T05:03:04.053Z,8.80
2023-04-19T05:05:40.013Z,14.50
2023-04-19T05:08:14.328Z,16.30
2023-04-19T05:10:48.271Z,13.30
2023-04-19T05:13:21.567Z,13.90
2023-04-19T05:15:55.047Z,13.70
2023-04-19T05:18:30.179Z,17.20
2023-04-19T05:23:37.260Z,13.30
2023-04-19T05:26:12.858Z,18.60
2023-04-19T05:28:47.062Z,17.40
2023-04-19T05:31:27.550Z,13.70
2023-04-19T05:34:21.837Z,20.70
2023-04-19T05:37:03.777Z,14.30
2023-04-19T05:39:37.664Z,17.60
2023-04-19T05:42:10.825Z,17.60
2023-04-19T05:44:43.926Z,15.80
2023-04-19T05:47:17.866Z,16.80
2023-04-19T05:50:18.214Z,13.90
2023-04-19T05:52:55.249Z,11.70
2023-04-19T05:58:01.316Z,23.20
2023-04-19T06:00:34.297Z,21.40
2023-04-19T06:03:12.564Z,17.90
2023-04-19T06:05:45.533Z,12.60
2023-04-19T06:08:18.955Z,14.90
2023-04-19T06:10:55.592Z,12.20
2023-04-19T06:13:35.389Z,14.00
2023-04-19T06:16:09.439Z,11.10
2023-04-19T06:18:43.804Z,13.50
2023-04-19T06:21:16.178Z,13.60
2023-04-19T06:23:49.404Z,14.30
2023-04-19T06:26:21.738Z,16.10
2023-04-19T06:28:57.459Z,26.90
2023-04-19T06:31:30.372Z,19.00
2023-04-19T06:34:02.716Z,25.60
2023-04-19T06:39:05.975Z,24.50
2023-04-19T06:41:38.168Z,25.10
2023-04-19T06:44:12.033Z,26.10
2023-04-19T06:46:44.541Z,24.90
2023-04-19T06:49:16.640Z,14.50
2023-04-19T06:51:49.481Z,18.30
2023-04-19T06:54:22.271Z,18.60
2023-04-19T06:56:57.151Z,32.50
2023-04-19T06:59:32.390Z,21.70
2023-04-19T07:02:04.540Z,46.60
2023-04-19T07:04:37.167Z,29.80
2023-04-19T07:07:09.338Z,59.30
2023-04-19T07:09:41.686Z,29.30
2023-04-19T07:12:13.979Z,37.00
2023-04-19T07:14:46.673Z,26.20
2023-04-19T07:17:20.438Z,13.80
2023-04-19T07:19:58.949Z,21.80
2023-04-19T07:22:31.458Z,37.00
2023-04-19T07:25:04.633Z,27.10
2023-04-19T07:27:37.994Z,17.60
2023-04-19T07:30:13.833Z,31.00
2023-04-19T07:32:47.953Z,32.50
2023-04-19T07:35:21.408Z,26.40
2023-04-19T07:40:28.465Z,13.80
2023-04-19T07:43:01.805Z,16.60
2023-04-19T07:45:34.848Z,14.90
2023-04-19T07:48:08.007Z,12.10
2023-04-19T07:50:40.796Z,15.90
2023-04-19T07:53:14.926Z,19.20
2023-04-19T07:58:18.025Z,16.10
2023-04-19T08:00:50.627Z,12.80
2023-04-19T08:03:24.116Z,20.50
2023-04-19T08:05:57.789Z,13.80
2023-04-19T08:08:33.629Z,15.50
2023-04-19T08:11:07.720Z,15.10
2023-04-19T08:13:42.138Z,19.00
2023-04-19T08:17:05.923Z,18.50
2023-04-19T08:19:12.475Z,17.40
2023-04-19T08:21:45.184Z,19.90
2023-04-19T08:26:53.629Z,21.60
2023-04-19T08:29:25.866Z,25.50
2023-04-19T08:31:57.869Z,16.70
2023-04-19T08:34:30.591Z,18.40
2023-04-19T08:37:04.719Z,16.60
2023-04-19T08:39:37.873Z,19.20
2023-04-19T08:42:24.634Z,20.70
2023-04-19T08:47:52.502Z,17.50
2023-04-19T08:50:40.466Z,13.50
2023-04-19T08:53:25.724Z,12.80
2023-04-19T08:56:12.739Z,17.00
2023-04-19T08:59:07.448Z,16.50
2023-04-19T09:01:44.834Z,13.90
2023-04-19T09:04:35.600Z,13.00
2023-04-19T09:07:09.630Z,15.60
2023-04-19T09:09:59.681Z,13.70
2023-04-19T09:15:08.965Z,15.10
2023-04-19T09:17:43.749Z,16.40
2023-04-19T09:20:15.895Z,14.80
2023-04-19T09:23:06.556Z,18.70
2023-04-19T09:25:52.933Z,19.20
2023-04-19T09:28:32.109Z,18.60
2023-04-19T09:34:18.031Z,21.60
2023-04-19T09:36:54.602Z,25.10
2023-04-19T09:39:33.814Z,24.90
2023-04-19T09:42:07.165Z,25.50
2023-04-19T09:47:26.030Z,24.20
2023-04-19T09:50:22.778Z,21.70
2023-04-19T09:52:56.594Z,21.00
2023-04-19T09:55:57.170Z,18.70
2023-04-19T09:58:49.988Z,20.60
2023-04-19T10:01:26.818Z,17.50
2023-04-19T10:04:13.749Z,28.10
2023-04-19T10:07:19.510Z,20.40
2023-04-19T10:09:53.654Z,22.00
2023-04-19T10:15:05.006Z,28.60
2023-04-19T10:17:37.316Z,25.30
2023-04-19T10:20:14.860Z,23.10
2023-04-19T10:22:49.519Z,26.50
2023-04-19T10:25:31.803Z,28.90
2023-04-19T10:28:04.170Z,22.50
2023-04-19T10:30:36.804Z,20.70
2023-04-19T10:35:41.884Z,21.90
2023-04-19T10:38:21.521Z,23.90
2023-04-19T10:41:05.664Z,17.80
2023-04-19T10:43:46.797Z,17.70
2023-04-19T10:46:37.401Z,15.60
2023-04-19T10:49:15.830Z,15.30
2023-04-19T10:51:54.879Z,15.80
2023-04-19T10:54:36.476Z,17.10
2023-04-19T10:57:11.452Z,21.60
2023-04-19T10:59:44.448Z,20.00
2023-04-19T11:02:34.179Z,22.10
2023-04-19T11:05:08.480Z,22.60
2023-04-19T11:07:44.349Z,21.20
2023-04-19T11:10:31.553Z,21.10
2023-04-19T11:13:04.050Z,18.10
2023-04-19T11:15:44.805Z,20.10
2023-04-19T11:18:22.775Z,21.50
2023-04-19T11:21:01.185Z,18.30
2023-04-19T11:23:33.239Z,21.40
2023-04-19T11:26:06.746Z,22.40
2023-04-19T11:28:39.095Z,24.20
2023-04-19T11:31:11.260Z,20.70
2023-04-19T11:33:45.199Z,24.20
2023-04-19T11:36:19.020Z,22.70
2023-04-19T11:38:53.545Z,19.30
2023-04-19T11:44:02.765Z,19.70
2023-04-19T11:46:36.001Z,21.20
2023-04-19T11:49:09.596Z,23.80
2023-04-19T11:51:46.439Z,21.50
2023-04-19T11:54:19.125Z,19.80
2023-04-19T11:57:06.121Z,18.70
2023-04-19T11:59:43.627Z,20.10
2023-04-19T12:02:21.763Z,23.10
2023-04-19T12:04:54.714Z,21.00
2023-04-19T12:07:26.858Z,20.10
2023-04-19T12:10:10.275Z,13.30
2023-04-19T12:12:42.802Z,18.80
2023-04-19T12:15:15.270Z,24.10
2023-04-19T12:18:01.894Z,19.30
2023-04-19T12:20:36.007Z,17.60
2023-04-19T12:23:13.444Z,21.60
2023-04-19T12:25:48.553Z,17.90
2023-04-19T12:28:26.189Z,19.70
2023-04-19T12:30:59.077Z,18.20
2023-04-19T12:36:03.458Z,17.50
2023-04-19T12:38:37.674Z,24.70
2023-04-19T12:41:09.798Z,30.80
2023-04-19T12:43:42.450Z,30.60
2023-04-19T12:46:15.649Z,54.80
2023-04-19T12:48:49.305Z,41.60
2023-04-19T12:51:21.982Z,30.40
2023-04-19T12:53:55.542Z,40.80
2023-04-19T12:56:27.698Z,49.60
2023-04-19T12:58:59.709Z,46.90
2023-04-19T13:01:33.320Z,67.00
2023-04-19T13:04:08.098Z,39.00
2023-04-19T13:06:45.057Z,59.80
2023-04-19T13:09:17.735Z,36.90
2023-04-19T13:11:49.722Z,41.90
2023-04-19T13:14:21.659Z,39.60
2023-04-19T13:16:53.946Z,31.90
2023-04-19T13:19:25.958Z,50.30
2023-04-19T13:21:57.968Z,34.50
2023-04-19T13:24:30.105Z,37.20
2023-04-19T13:27:02.370Z,47.00
2023-04-19T13:29:34.818Z,45.90
2023-04-19T13:32:12.431Z,41.60
2023-04-19T13:34:44.983Z,33.20
2023-04-19T13:37:17.060Z,28.90
2023-04-19T13:39:49.111Z,19.30
2023-04-19T13:42:22.723Z,27.40
2023-04-19T13:44:54.595Z,29.90
2023-04-19T13:47:26.898Z,23.70
2023-04-19T13:49:59.347Z,30.30
2023-04-19T13:52:31.363Z,26.50
2023-04-19T13:55:03.540Z,27.60
2023-04-19T13:57:35.588Z,22.80
2023-04-19T14:00:11.437Z,26.60
2023-04-19T14:02:45.051Z,26.70
2023-04-19T14:05:17.370Z,22.90
2023-04-19T14:07:49.515Z,24.80
2023-04-19T14:10:22.527Z,23.90
2023-04-19T14:12:55.463Z,26.80
2023-04-19T14:17:58.967Z,30.80
2023-04-19T14:20:31.443Z,25.80
2023-04-19T14:23:04.962Z,22.40
2023-04-19T14:25:37.376Z,21.80
2023-04-19T14:28:09.589Z,27.60
2023-04-19T14:30:41.568Z,20.50
2023-04-19T14:33:13.633Z,17.80
2023-04-19T14:35:46.106Z,22.00
2023-04-19T14:38:18.552Z,23.10
2023-04-19T14:40:50.801Z,17.30
2023-04-19T14:43:22.895Z,24.10
2023-04-19T14:45:55.616Z,17.10
2023-04-19T14:50:58.638Z,18.50
2023-04-19T14:53:33.480Z,22.60
2023-04-19T14:56:08.346Z,18.90
2023-04-19T14:58:40.516Z,17.80
2023-04-19T15:01:16.309Z,20.00
2023-04-19T15:03:48.674Z,21.20
2023-04-19T15:06:20.943Z,22.20
2023-04-19T15:08:53.542Z,18.10
2023-04-19T15:11:25.823Z,19.00
2023-04-19T15:13:58.150Z,18.40
2023-04-19T15:16:31.778Z,19.30
2023-04-19T15:19:07.424Z,22.00
2023-04-19T15:21:42.373Z,23.30
2023-04-19T15:24:14.507Z,20.20
2023-04-19T15:26:46.613Z,26.10
2023-04-19T15:29:18.833Z,14.60
2023-04-19T15:31:51.430Z,22.20
2023-04-19T15:34:25.359Z,21.00
2023-04-19T15:36:57.441Z,20.10
2023-04-19T15:39:29.562Z,21.90
2023-04-19T15:42:02.208Z,30.80
2023-04-19T15:44:36.135Z,22.70
2023-04-19T15:47:13.520Z,21.40
2023-04-19T15:49:47.210Z,25.10
2023-04-19T15:52:19.327Z,22.60
2023-04-19T15:54:53.855Z,22.30
2023-04-19T15:57:28.762Z,26.90
2023-04-19T16:00:01.381Z,30.00
2023-04-19T16:02:34.786Z,30.30
2023-04-19T16:05:07.902Z,29.30
2023-04-19T16:10:11.037Z,31.50
2023-04-19T16:12:44.287Z,30.20
2023-04-19T16:15:16.300Z,34.70
2023-04-19T16:17:48.227Z,35.40
2023-04-19T16:20:20.671Z,22.70
2023-04-19T16:22:52.700Z,26.80
2023-04-19T16:25:24.502Z,31.90
2023-04-19T16:27:56.395Z,31.40
2023-04-19T16:30:28.830Z,34.30
2023-04-19T16:33:04.508Z,34.70
2023-04-19T16:35:36.533Z,32.60
2023-04-19T16:38:08.901Z,18.80
2023-04-19T16:40:40.805Z,30.70
2023-04-19T16:43:12.777Z,35.20
2023-04-19T16:45:44.893Z,33.10
2023-04-19T16:48:17.003Z,22.80
2023-04-19T16:50:49.979Z,31.50
2023-04-19T16:55:53.530Z,44.10
2023-04-19T16:58:28.066Z,53.30
2023-04-19T17:01:01.897Z,56.30
2023-04-19T17:03:35.014Z,60.80
2023-04-19T17:06:07.901Z,76.60
2023-04-19T17:08:39.748Z,87.70
2023-04-19T17:11:11.652Z,104.60
2023-04-19T17:13:43.724Z,135.60
2023-04-19T17:16:15.731Z,101.50
2023-04-19T17:18:48.091Z,79.60
2023-04-19T17:21:23.449Z,115.60
2023-04-19T17:23:55.769Z,68.20
2023-04-19T17:26:28.079Z,54.90
2023-04-19T17:29:01.780Z,121.80
2023-04-19T17:31:34.147Z,63.40
2023-04-19T17:34:07.176Z,45.00
2023-04-19T17:36:39.172Z,37.40
2023-04-19T17:39:11.056Z,37.40
2023-04-19T17:41:44.718Z,28.00
2023-04-19T17:44:16.595Z,30.70
2023-04-19T17:46:48.418Z,26.30
2023-04-19T17:49:21.733Z,38.00
2023-04-19T17:51:53.516Z,39.60
2023-04-19T17:54:25.547Z,33.60
2023-04-19T17:56:59.329Z,26.80
2023-04-19T17:59:31.564Z,27.20
2023-04-19T18:02:04.562Z,24.60
2023-04-19T18:04:37.759Z,24.70
2023-04-19T18:07:10.521Z,25.10
2023-04-19T18:09:43.019Z,20.40
2023-04-19T18:12:14.696Z,21.20
2023-04-19T18:14:46.567Z,19.40
2023-04-19T18:17:18.399Z,16.00
2023-04-19T18:19:50.183Z,19.30
2023-04-19T18:22:21.962Z,19.40
2023-04-19T18:24:55.706Z,22.40
2023-04-19T18:27:29.708Z,20.40
2023-04-19T18:30:05.711Z,20.70
2023-04-19T18:32:43.946Z,22.30
2023-04-19T18:35:28.470Z,21.10
2023-04-19T18:38:11.710Z,20.40
2023-04-19T18:40:46.982Z,16.90
2023-04-19T18:43:20.523Z,28.00
2023-04-19T18:46:02.993Z,28.90
2023-04-19T18:48:39.709Z,23.60
2023-04-19T18:51:16.166Z,18.50
2023-04-19T18:53:52.051Z,20.90
2023-04-19T18:57:03.822Z,20.60
2023-04-19T18:59:21.773Z,19.70
2023-04-19T19:01:59.274Z,23.10
2023-04-19T19:07:33.317Z,21.30
2023-04-19T19:10:16.971Z,19.60
2023-04-19T19:12:55.889Z,26.90
2023-04-19T19:15:38.493Z,18.70
2023-04-19T19:18:15.158Z,22.20
2023-04-19T19:20:49.669Z,15.40
2023-04-19T19:23:35.299Z,20.30
2023-04-19T19:26:09.269Z,19.60
2023-04-19T19:28:47.352Z,16.50
2023-04-19T19:31:25.513Z,13.00
2023-04-19T19:34:22.005Z,16.90
2023-04-19T19:36:55.279Z,24.40
2023-04-19T19:39:28.363Z,17.90
2023-04-19T19:42:06.080Z,26.40
2023-04-19T19:44:40.790Z,36.70
2023-04-19T19:47:17.242Z,33.50
2023-04-19T19:50:31.444Z,23.00
2023-04-19T19:52:45.528Z,25.00
2023-04-19T19:55:18.832Z,26.50
2023-04-19T20:03:07.128Z,26.80
2023-04-19T20:05:41.465Z,26.00
2023-04-19T20:08:16.898Z,32.20
2023-04-19T20:10:49.926Z,31.60
2023-04-19T20:13:23.726Z,31.70
2023-04-19T20:15:58.859Z,34.20
2023-04-19T20:18:32.658Z,35.70
2023-04-19T20:21:05.895Z,38.80
2023-04-19T20:23:41.556Z,44.30
2023-04-19T20:26:15.525Z,32.30
2023-04-19T20:28:52.270Z,34.80
2023-04-19T20:31:27.227Z,63.60
2023-04-19T20:34:05.143Z,58.60
2023-04-19T20:36:40.693Z,47.60
2023-04-19T20:39:19.523Z,57.20
2023-04-19T20:41:54.052Z,44.40
2023-04-19T20:44:28.028Z,57.00
2023-04-19T20:47:02.871Z,48.50
2023-04-19T20:49:39.152Z,33.90
2023-04-19T20:52:14.219Z,33.00
2023-04-19T20:54:50.367Z,36.40
2023-04-19T20:57:28.083Z,32.30
2023-04-19T21:00:04.908Z,38.00
2023-04-19T21:02:39.960Z,40.90
2023-04-19T21:05:12.850Z,35.70
2023-04-19T21:07:46.865Z,36.20
2023-04-19T21:10:22.357Z,44.10
2023-04-19T21:12:59.501Z,42.40
2023-04-19T21:15:38.219Z,39.60
2023-04-19T21:18:12.260Z,41.80
2023-04-19T21:20:45.388Z,37.90
2023-04-19T21:23:20.794Z,34.60
2023-04-19T21:25:58.114Z,37.70
2023-04-19T21:28:39.663Z,37.00
2023-04-19T21:31:12.357Z,37.70
2023-04-19T21:33:45.768Z,36.60
2023-04-19T21:36:19.050Z,38.50
2023-04-19T21:38:52.848Z,43.10
2023-04-19T21:41:26.290Z,39.80
2023-04-19T21:46:31.908Z,41.10
2023-04-19T21:49:04.719Z,44.30
2023-04-19T21:51:38.954Z,39.10
2023-04-19T21:54:20.547Z,37.30
2023-04-19T21:57:04.279Z,37.60
2023-04-19T21:59:37.910Z,38.90
2023-04-19T22:02:11.482Z,39.10
2023-04-19T22:04:45.905Z,38.60
2023-04-19T22:07:21.219Z,45.90
2023-04-19T22:09:54.914Z,40.40
2023-04-19T22:12:27.193Z,44.40
2023-04-19T22:14:59.032Z,35.70
2023-04-19T22:17:32.454Z,35.00
2023-04-19T22:20:08.491Z,42.20
2023-04-19T22:22:40.958Z,40.80
2023-04-19T22:25:13.183Z,44.30
2023-04-19T22:27:45.450Z,40.00
2023-04-19T22:30:17.572Z,42.60
2023-04-19T22:32:49.841Z,39.60
2023-04-19T22:35:22.874Z,39.90
2023-04-19T22:37:55.059Z,39.60
2023-04-19T22:40:26.996Z,40.80
2023-04-19T22:42:58.699Z,40.90
2023-04-19T22:45:30.494Z,32.70
2023-04-19T22:48:03.239Z,42.50
2023-04-19T22:50:35.406Z,42.60
2023-04-19T22:53:07.171Z,37.90
2023-04-19T22:55:39.115Z,33.30
2023-04-19T22:58:11.642Z,41.30
2023-04-19T23:00:43.489Z,46.00
2023-04-19T23:03:15.863Z,41.40
2023-04-19T23:05:48.129Z,43.60
2023-04-19T23:08:19.985Z,39.60
2023-04-19T23:10:52.025Z,39.20
2023-04-19T23:13:23.796Z,41.50
2023-04-19T23:15:55.919Z,42.30
2023-04-19T23:18:27.884Z,48.60
2023-04-19T23:20:59.681Z,36.30
2023-04-19T23:23:31.437Z,44.00
2023-04-19T23:26:03.190Z,43.80
2023-04-19T23:28:35.109Z,43.70
2023-04-19T23:31:07.027Z,47.50
2023-04-19T23:33:38.850Z,45.40
2023-04-19T23:36:11.539Z,50.80
2023-04-19T23:38:43.556Z,47.80
2023-04-19T23:41:15.307Z,41.60
2023-04-19T23:43:48.943Z,48.20
2023-04-19T23:46:20.743Z,47.70
2023-04-19T23:48:52.586Z,46.60
2023-04-19T23:51:24.701Z,50.20
2023-04-19T23:53:56.358Z,50.70
2023-04-19T23:56:28.150Z,47.30
2023-04-19T23:58:59.902Z,49.40
